Aviation Digital Data Service (ADDS)

Output produced by METARs form (1128 UTC 29 July 2015)
found at http://aviationweather.gov/adds/metars/
 
KRWI 291120Z 2912/3012 17005KT P6SM SCT050 BKN150 
     FM300900 00000KT 2SM BR BKN007